Auburn, MA (01501)

11:27 AM EST on January 26, 2015 (GMT -0500)
APRSWXNET Auburn MA US | Change Station
CLOSE
Current Station
Personal Weather Station
Location: Worcester, MA
Elevation: 708 ft
Nearby Weather Stations
Active Advisory: Blizzard Warning

Elev 708 ft 42.22 °N, 71.81 °W | Updated 29 minutes ago

Overcast
Overcast
12 °F
Feels Like 5 °F
N
4
Wind Variable Wind from ENE
Gusts 10.0 mph

Today
High -- | Low -- °F
--% Chance of Precip.
Yesterday
High -- | Low -- °F
Precip. -- in
7:06 AM 4:53 PM
Waxing Crescent, 44% visible
Pressure 30.10 in
Visibility 10.0 miles
Clouds Overcast 1200 ft
Windchill 5 °F
Dew Point 2 °F
Humidity 63%
Rainfall 0.00 in
Snow Depth Not available.
UV 1 out of 12
Pollen .10 out of 12
Air Quality Not available.
Flu Activity Not available.
METAR KORH 261554Z 04010KT 10SM OVC012 M11/M16 A3004 RMK AO2 SLP192 T11061156

More Conditions Fewer Conditions

Pressure 30.10 in
Visibility 10.0 miles
Clouds Overcast 1200 ft
Windchill 5 °F
Dew Point 2 °F
Humidity 63%
Rainfall 0.00 in
Snow Depth Not available.
UV 1 out of 12
Pollen .10 out of 12
Air Quality Not available.
Flu Activity Not available.
METAR KORH 261554Z 04010KT 10SM OVC012 M11/M16 A3004 RMK AO2 SLP192 T11061156

More Conditions Fewer Conditions

10-Day Weather Forecast

Almanac

Astronomy

Jan. 26, 2015 Rise Set
Actual Time
Civil Twilight
Nautical Twilight
Astronomical Twilight
Moon
Length of Visible Light
Length of Day
Tomorrow will be .
, % of the Moon is Illuminated

Today's Extremes

State Highs State Lows

Community

WunderPhotos

Upload Photos

1,790,272 photos uploaded!

WunderBlogs® & News

Nearby

Air Quality

  Air Quality AQ Index Pollutant
Not available.

Snow Depth

Station Depth Elevation

Earthquake Activity

City Distance Mag. Time & Date
Minimum magnitude displayed is 2.5.

Coastal Water Temperatures

Place Temperature

Nearby Weather Stations